Time;durP1;ratioP1;P1;durP2;ratioP2;P2;SDS_P1;SDS_P2;PMS_P1;PMS_P2;Temp;Humidity;BMP_temperature;BMP_pressure;BME280_temperature;BME280_humidity;BME280_pressure;Samples;Min_cycle;Max_cycle;Signal;HPM_P1;HPM_P2
2021/12/05 00:22:44;;;;;;;77.43;33.97;;;;;;;;;;5032355;28;20055;-73
2021/12/05 00:25:12;;;;;;;62.03;29.55;;;;;;;;;;5032102;28;20028;-72
2021/12/05 00:27:46;;;;;;;66.07;31.42;;;;;;;;;;5032784;28;20022;-72
2021/12/05 00:36:30;;;;;;;58.20;30.88;;;;;;;;;;5032207;28;20088;-74
2021/12/05 00:41:44;;;;;;;52.65;27.35;;;;;;;;;;5031999;28;20052;-74
2021/12/05 00:55:28;;;;;;;;;;;;;;;;;;;;;
2021/12/05 01:00:28;;;;;;;57.00;29.20;;;;;;;;;;5031987;28;20034;-73
2021/12/05 01:03:16;;;;;;;58.72;29.40;;;;;;;;;;5046860;22;20023;-73
2021/12/05 01:11:30;;;;;;;60.47;30.52;;;;;;;;;;5052058;28;20092;-74
2021/12/05 01:14:10;;;;;;;57.60;29.30;;;;;;;;;;5050207;28;20087;-74
2021/12/05 01:16:36;;;;;;;57.45;28.65;;;;;;;;;;5054327;28;20028;-73
2021/12/05 01:19:04;;;;;;;57.03;28.17;;;;;;;;;;5054645;28;20505;-75
2021/12/05 01:21:31;;;;;;;49.90;25.83;;;;;;;;;;5056113;28;20521;-73
2021/12/05 01:24:08;;;;;;;50.85;24.90;;;;;;;;;;5054501;28;20029;-75
2021/12/05 01:26:46;;;;;;;41.15;22.45;;;;;;;;;;5054518;28;20455;-75
2021/12/05 01:31:56;;;;;;;26.42;15.10;;;;;;;;;;5055510;28;20045;-74
2021/12/05 01:51:46;;;;;;;22.30;14.98;;;;;;;;;;5056774;28;20094;-76
2021/12/05 02:16:06;;;;;;;13.20;9.63;;;;;;;;;;5054658;28;20038;-75
2021/12/05 02:35:16;;;;;;;10.80;8.23;;;;;;;;;;5054206;28;20052;-74
2021/12/05 02:40:54;;;;;;;10.63;8.20;;;;;;;;;;5054480;28;20133;-74
2021/12/05 02:43:28;;;;;;;10.40;7.30;;;;;;;;;;5052436;28;20207;-74
2021/12/05 02:45:58;;;;;;;9.68;7.70;;;;;;;;;;5052755;28;20044;-74
2021/12/05 02:48:27;;;;;;;9.07;7.00;;;;;;;;;;5052801;28;20028;-73
2021/12/05 02:50:58;;;;;;;11.27;6.63;;;;;;;;;;5054070;28;20021;-76
2021/12/05 02:53:39;;;;;;;9.38;7.65;;;;;;;;;;5052387;28;20029;-76
2021/12/05 02:56:06;;;;;;;9.05;7.18;;;;;;;;;;5052744;28;20025;-76
2021/12/05 02:58:41;;;;;;;9.50;7.10;;;;;;;;;;5032360;28;20025;-75
2021/12/05 03:01:14;;;;;;;10.25;7.68;;;;;;;;;;5052384;28;20033;-75
2021/12/05 03:03:40;;;;;;;7.40;6.32;;;;;;;;;;5053294;28;20032;-74
2021/12/05 03:06:17;;;;;;;11.15;6.85;;;;;;;;;;5052259;28;20104;-75
2021/12/05 03:08:44;;;;;;;8.07;6.57;;;;;;;;;;5052489;28;20028;-75
2021/12/05 03:11:13;;;;;;;8.20;6.22;;;;;;;;;;5053527;28;20541;-75
2021/12/05 03:13:45;;;;;;;8.80;6.55;;;;;;;;;;5053291;28;20039;-75
2021/12/05 03:16:13;;;;;;;8.02;6.40;;;;;;;;;;5052504;28;20020;-76
2021/12/05 03:18:39;;;;;;;9.55;6.60;;;;;;;;;;5053432;28;20032;-75
2021/12/05 03:21:07;;;;;;;8.43;6.25;;;;;;;;;;5052228;28;20033;-74
2021/12/05 03:23:35;;;;;;;8.40;6.00;;;;;;;;;;5052941;28;20029;-75
2021/12/05 03:26:01;;;;;;;8.32;5.95;;;;;;;;;;5051999;28;20025;-75
2021/12/05 03:28:27;;;;;;;7.32;5.80;;;;;;;;;;5053090;28;20104;-75
2021/12/05 03:30:53;;;;;;;7.70;5.93;;;;;;;;;;5053217;28;20047;-74
2021/12/05 03:33:19;;;;;;;8.55;6.57;;;;;;;;;;5051674;28;20025;-75
2021/12/05 03:35:46;;;;;;;9.60;6.35;;;;;;;;;;5053602;28;20105;-75
2021/12/05 03:38:12;;;;;;;8.20;6.80;;;;;;;;;;5042498;28;20033;-75
2021/12/05 03:40:38;;;;;;;9.90;7.70;;;;;;;;;;5033089;28;20080;-75
2021/12/05 03:43:08;;;;;;;10.75;7.55;;;;;;;;;;5032494;28;20041;-75
2021/12/05 03:45:37;;;;;;;9.35;6.55;;;;;;;;;;5033022;28;20034;-74
2021/12/05 03:48:04;;;;;;;11.63;7.93;;;;;;;;;;5031594;28;20117;-74
2021/12/05 03:50:30;;;;;;;8.73;6.95;;;;;;;;;;5033094;28;20276;-75
2021/12/05 03:52:56;;;;;;;11.73;6.97;;;;;;;;;;5031506;28;20423;-74
2021/12/05 03:55:23;;;;;;;12.43;6.68;;;;;;;;;;5032881;28;20052;-74
2021/12/05 03:57:49;;;;;;;10.90;6.80;;;;;;;;;;5033256;28;20036;-75
2021/12/05 04:00:21;;;;;;;10.00;6.38;;;;;;;;;;5033088;28;20067;-74
2021/12/05 04:02:48;;;;;;;8.70;5.90;;;;;;;;;;5032370;28;20044;-74
2021/12/05 04:05:14;;;;;;;9.18;6.20;;;;;;;;;;5032727;28;20022;-74
2021/12/05 04:07:41;;;;;;;8.80;6.85;;;;;;;;;;5032714;28;20021;-74
2021/12/05 04:10:07;;;;;;;7.93;6.10;;;;;;;;;;5031164;28;20108;-75
2021/12/05 04:12:33;;;;;;;9.05;6.30;;;;;;;;;;5032347;28;20021;-74
2021/12/05 04:15:00;;;;;;;6.85;5.57;;;;;;;;;;5032494;28;20035;-74
2021/12/05 04:17:26;;;;;;;7.20;5.20;;;;;;;;;;5044260;28;20063;-75
2021/12/05 04:19:52;;;;;;;10.50;5.80;;;;;;;;;;5051314;28;20025;-74
2021/12/05 04:22:19;;;;;;;5.88;4.55;;;;;;;;;;5052363;28;20104;-74
2021/12/05 04:24:47;;;;;;;8.25;4.90;;;;;;;;;;5050380;28;20083;-75
2021/12/05 04:27:14;;;;;;;11.50;5.18;;;;;;;;;;5043997;28;20041;-75
2021/12/05 04:29:40;;;;;;;4.50;4.00;;;;;;;;;;5044026;28;20021;-74
2021/12/05 04:32:07;;;;;;;5.70;3.97;;;;;;;;;;5052313;28;20075;-74
2021/12/05 04:34:33;;;;;;;10.77;5.13;;;;;;;;;;5051480;28;20100;-75
2021/12/05 04:36:59;;;;;;;8.77;5.13;;;;;;;;;;5034110;28;20029;-74
2021/12/05 04:39:26;;;;;;;6.10;3.55;;;;;;;;;;5051999;28;20067;-75
2021/12/05 04:41:52;;;;;;;6.28;3.70;;;;;;;;;;5052119;28;20029;-74
2021/12/05 04:44:20;;;;;;;6.30;3.78;;;;;;;;;;5051758;28;20033;-74
2021/12/05 04:46:46;;;;;;;9.60;4.40;;;;;;;;;;5050339;28;20330;-75
2021/12/05 04:49:13;;;;;;;6.95;4.10;;;;;;;;;;5049463;28;20028;-75
2021/12/05 04:51:44;;;;;;;9.18;4.75;;;;;;;;;;5051242;28;20048;-75
2021/12/05 04:54:12;;;;;;;6.47;3.58;;;;;;;;;;5050646;28;20021;-75
2021/12/05 04:56:38;;;;;;;5.38;3.35;;;;;;;;;;5052329;28;20106;-75
2021/12/05 04:59:11;;;;;;;8.95;4.13;;;;;;;;;;5052115;28;20033;-75
2021/12/05 05:01:37;;;;;;;7.03;3.65;;;;;;;;;;5047766;28;20089;-75
2021/12/05 05:04:09;;;;;;;9.52;3.75;;;;;;;;;;5049320;28;20524;-73
2021/12/05 05:06:35;;;;;;;10.27;3.92;;;;;;;;;;5049028;28;20024;-73
2021/12/05 05:09:01;;;;;;;9.02;4.18;;;;;;;;;;5050263;28;20160;-75
2021/12/05 05:11:27;;;;;;;5.53;3.50;;;;;;;;;;5049122;28;20021;-75
2021/12/05 05:13:53;;;;;;;8.45;3.90;;;;;;;;;;5051031;28;20028;-74
2021/12/05 05:16:24;;;;;;;12.18;3.90;;;;;;;;;;5051419;28;20020;-74
2021/12/05 05:18:59;;;;;;;9.60;4.32;;;;;;;;;;5051864;28;20021;-73
2021/12/05 05:21:47;;;;;;;9.13;4.18;;;;;;;;;;5051514;28;20021;-73
2021/12/05 05:27:27;;;;;;;9.40;4.03;;;;;;;;;;5051699;28;20024;-74
2021/12/05 05:46:18;;;;;;;12.23;5.88;;;;;;;;;;5052000;28;20048;-73
2021/12/05 05:51:40;;;;;;;8.20;4.47;;;;;;;;;;5014895;28;20026;-73
2021/12/05 05:54:06;;;;;;;8.10;4.50;;;;;;;;;;5051280;28;20033;-73
2021/12/05 05:56:34;;;;;;;6.15;3.72;;;;;;;;;;5051832;28;20028;-73
2021/12/05 05:59:07;;;;;;;15.23;4.18;;;;;;;;;;5052306;28;20055;-73
2021/12/05 06:04:03;;;;;;;5.00;3.25;;;;;;;;;;5056199;28;20127;-74
2021/12/05 06:06:31;;;;;;;10.90;4.43;;;;;;;;;;5056187;28;20032;-73
2021/12/05 06:08:57;;;;;;;9.52;3.47;;;;;;;;;;5055874;28;20025;-74
2021/12/05 06:11:23;;;;;;;9.07;3.60;;;;;;;;;;5054700;28;20495;-74
2021/12/05 06:13:49;;;;;;;6.10;3.28;;;;;;;;;;5055046;28;20021;-74
2021/12/05 06:16:19;;;;;;;6.82;3.40;;;;;;;;;;5055710;28;20048;-74
2021/12/05 06:18:45;;;;;;;8.10;3.88;;;;;;;;;;5055572;28;20028;-74
2021/12/05 06:21:12;;;;;;;6.75;2.80;;;;;;;;;;5055264;28;20029;-74
2021/12/05 06:23:39;;;;;;;6.82;4.05;;;;;;;;;;5055880;28;20025;-75
2021/12/05 06:26:07;;;;;;;9.30;3.20;;;;;;;;;;5055276;28;20025;-74
2021/12/05 06:28:40;;;;;;;7.00;3.38;;;;;;;;;;5054310;28;20147;-75
2021/12/05 06:31:23;;;;;;;4.32;3.10;;;;;;;;;;5055143;28;20048;-74
2021/12/05 06:36:57;;;;;;;3.80;2.67;;;;;;;;;;5055180;28;20116;-74
2021/12/05 06:39:28;;;;;;;4.85;2.90;;;;;;;;;;5053343;28;20029;-74
2021/12/05 06:47:12;;;;;;;5.72;3.35;;;;;;;;;;5054797;28;20040;-74
2021/12/05 06:49:39;;;;;;;4.50;3.20;;;;;;;;;;5047958;28;20029;-72
2021/12/05 06:52:07;;;;;;;7.35;3.50;;;;;;;;;;5049873;28;20056;-74
2021/12/05 06:54:33;;;;;;;7.82;2.92;;;;;;;;;;5040056;28;20035;-74
2021/12/05 06:56:59;;;;;;;8.95;3.72;;;;;;;;;;5053853;28;20100;-73
2021/12/05 06:59:25;;;;;;;5.40;3.33;;;;;;;;;;5036026;28;20021;-73
2021/12/05 07:01:51;;;;;;;12.75;3.30;;;;;;;;;;5032398;28;20029;-73
2021/12/05 07:04:48;;;;;;;5.45;2.97;;;;;;;;;;5040100;22;20133;-72
2021/12/05 07:07:21;;;;;;;8.00;3.28;;;;;;;;;;4994529;28;20034;-72
2021/12/05 07:09:48;;;;;;;9.82;3.50;;;;;;;;;;5001031;28;20033;-72
2021/12/05 07:20:02;;;;;;;6.65;2.80;;;;;;;;;;5012763;28;20117;-72
2021/12/05 07:22:44;;;;;;;9.52;3.30;;;;;;;;;;5013678;28;20124;-72
2021/12/05 07:25:26;;;;;;;5.90;2.95;;;;;;;;;;5013459;28;20038;-73
2021/12/05 07:41:49;;;;;;;9.63;3.72;;;;;;;;;;5013365;28;20459;-72
2021/12/05 07:44:16;;;;;;;10.25;3.80;;;;;;;;;;5012988;28;20337;-71
2021/12/05 07:46:42;;;;;;;7.80;3.15;;;;;;;;;;5013281;28;20022;-72
2021/12/05 07:49:10;;;;;;;3.80;2.70;;;;;;;;;;5011949;28;20022;-72
2021/12/05 07:51:41;;;;;;;5.75;3.72;;;;;;;;;;5013279;28;20109;-73
2021/12/05 07:54:13;;;;;;;6.60;2.77;;;;;;;;;;5012804;28;20030;-73
2021/12/05 07:56:48;;;;;;;9.15;3.78;;;;;;;;;;5013042;28;20026;-73
2021/12/05 08:16:00;;;;;;;7.60;3.25;;;;;;;;;;5013130;28;20404;-73
2021/12/05 08:18:27;;;;;;;6.90;2.90;;;;;;;;;;5011660;28;20029;-73
2021/12/05 08:20:53;;;;;;;8.55;2.65;;;;;;;;;;5010579;28;20026;-73
2021/12/05 08:23:22;;;;;;;4.82;2.60;;;;;;;;;;5010013;28;20018;-73
2021/12/05 08:25:54;;;;;;;7.68;2.70;;;;;;;;;;5011402;28;20037;-73
2021/12/05 08:28:56;;;;;;;4.50;2.78;;;;;;;;;;5010500;28;20017;-72
2021/12/05 09:30:36;;;;;;;42.78;19.90;;;;;;;;;;5012143;28;20097;-71
2021/12/05 09:53:18;;;;;;;12.48;6.03;;;;;;;;;;5012928;28;20029;-68
2021/12/05 10:16:41;;;;;;;8.70;4.50;;;;;;;;;;5013389;28;20064;-66
2021/12/05 10:38:32;;;;;;;97.38;46.42;;;;;;;;;;5013553;28;20034;-72
2021/12/05 10:41:47;;;;;;;131.60;66.40;;;;;;;;;;5013791;28;20021;-72
2021/12/05 10:43:55;;;;;;;49.30;23.63;;;;;;;;;;5009721;28;20057;-73
2021/12/05 10:46:22;;;;;;;16.90;7.70;;;;;;;;;;5008668;28;20030;-71
2021/12/05 10:48:50;;;;;;;22.90;11.50;;;;;;;;;;5013467;28;20030;-71
2021/12/05 10:51:19;;;;;;;7.18;3.20;;;;;;;;;;5013616;28;20434;-71
2021/12/05 10:54:07;;;;;;;6.95;3.33;;;;;;;;;;5013642;28;20449;-71
2021/12/05 10:56:33;;;;;;;7.07;2.33;;;;;;;;;;5010488;28;20042;-71
2021/12/05 10:59:08;;;;;;;22.65;10.40;;;;;;;;;;5014210;28;20407;-70
2021/12/05 11:01:47;;;;;;;35.08;16.33;;;;;;;;;;5014392;28;20026;-71
2021/12/05 11:04:13;;;;;;;12.00;4.40;;;;;;;;;;5013669;28;20037;-69
2021/12/05 11:06:52;;;;;;;14.45;4.60;;;;;;;;;;5014096;28;20018;-70
2021/12/05 11:09:21;;;;;;;10.45;4.40;;;;;;;;;;5013824;28;20022;-70
2021/12/05 11:11:49;;;;;;;7.10;2.08;;;;;;;;;;5002734;28;20022;-70
2021/12/05 11:14:20;;;;;;;8.25;3.05;;;;;;;;;;4995928;28;20022;-70
2021/12/05 11:16:51;;;;;;;10.25;3.90;;;;;;;;;;5013655;28;20030;-70
2021/12/05 11:19:19;;;;;;;13.57;5.95;;;;;;;;;;5012244;28;20463;-71
2021/12/05 11:21:48;;;;;;;9.25;3.60;;;;;;;;;;5011643;28;20042;-71
2021/12/05 11:24:19;;;;;;;10.07;4.22;;;;;;;;;;5026627;28;20030;-70
2021/12/05 11:27:00;;;;;;;8.23;3.35;;;;;;;;;;5012146;28;20025;-71
2021/12/05 11:29:39;;;;;;;7.10;2.53;;;;;;;;;;5012214;28;20769;-71
2021/12/05 11:32:09;;;;;;;14.30;6.05;;;;;;;;;;5027574;28;20503;-70
2021/12/05 11:34:35;;;;;;;13.18;3.58;;;;;;;;;;5012854;28;20341;-72
2021/12/05 11:37:00;;;;;;;8.15;3.30;;;;;;;;;;5013784;28;20377;-70
2021/12/05 11:39:26;;;;;;;10.32;3.30;;;;;;;;;;5013741;28;20123;-71
2021/12/05 11:41:52;;;;;;;6.25;3.17;;;;;;;;;;5029051;28;20032;-71
2021/12/05 11:44:20;;;;;;;7.35;2.42;;;;;;;;;;5013360;28;20034;-71
2021/12/05 11:46:47;;;;;;;12.73;3.80;;;;;;;;;;5028797;28;20034;-70
2021/12/05 11:49:24;;;;;;;9.57;3.90;;;;;;;;;;5014046;28;20435;-71
2021/12/05 11:51:56;;;;;;;5.55;2.22;;;;;;;;;;5028865;28;20097;-71
2021/12/05 11:54:29;;;;;;;6.30;2.63;;;;;;;;;;5013214;28;20032;-71
2021/12/05 11:56:55;;;;;;;19.98;7.15;;;;;;;;;;5013467;28;20526;-71
2021/12/05 11:59:36;;;;;;;8.68;3.83;;;;;;;;;;5012969;28;20144;-70
2021/12/05 12:02:07;;;;;;;14.10;4.70;;;;;;;;;;5014877;28;20087;-72
2021/12/05 12:05:08;;;;;;;10.88;4.05;;;;;;;;;;5013193;28;20120;-72
2021/12/05 12:07:39;;;;;;;9.20;3.20;;;;;;;;;;4953804;29;20421;-72
2021/12/05 12:10:16;;;;;;;12.98;4.85;;;;;;;;;;5003570;28;20499;-71
2021/12/05 12:12:44;;;;;;;16.27;4.18;;;;;;;;;;5013561;28;20049;-70
2021/12/05 12:15:10;;;;;;;14.02;4.78;;;;;;;;;;5013089;28;20480;-71
2021/12/05 12:17:37;;;;;;;10.05;3.97;;;;;;;;;;5013051;28;20022;-71
2021/12/05 12:20:04;;;;;;;11.63;3.97;;;;;;;;;;5012834;28;20061;-71
2021/12/05 12:22:30;;;;;;;9.52;3.17;;;;;;;;;;5012650;28;20034;-72
2021/12/05 12:25:03;;;;;;;14.05;3.67;;;;;;;;;;5013180;28;20113;-71
2021/12/05 12:27:29;;;;;;;10.40;4.18;;;;;;;;;;5012880;28;20014;-71
2021/12/05 12:29:57;;;;;;;17.73;5.53;;;;;;;;;;5012753;28;20152;-71
2021/12/05 12:32:28;;;;;;;11.20;3.33;;;;;;;;;;5012452;28;20022;-71
2021/12/05 12:34:55;;;;;;;;;;;;;;;;;;5012721;28;20109;-71
2021/12/05 12:37:21;;;;;;;8.63;3.65;;;;;;;;;;5012703;28;19909;-71
2021/12/05 12:39:49;;;;;;;9.75;2.28;;;;;;;;;;5012773;28;20113;-71
2021/12/05 12:42:38;;;;;;;10.15;3.10;;;;;;;;;;5027616;28;20030;-72
2021/12/05 12:45:15;;;;;;;10.38;3.90;;;;;;;;;;5027184;28;20075;-71
2021/12/05 12:47:53;;;;;;;10.00;3.40;;;;;;;;;;5012458;28;20503;-71
2021/12/05 12:50:22;;;;;;;6.45;3.03;;;;;;;;;;5012613;28;20026;-70
2021/12/05 12:52:58;;;;;;;9.55;3.38;;;;;;;;;;5012434;28;20025;-71
2021/12/05 12:55:33;;;;;;;11.32;3.03;;;;;;;;;;5012569;28;20113;-71
2021/12/05 12:58:03;;;;;;;11.30;5.10;;;;;;;;;;5027840;28;20034;-71
2021/12/05 13:00:30;;;;;;;9.70;3.85;;;;;;;;;;5012602;28;20025;-71
2021/12/05 13:03:12;;;;;;;13.13;4.15;;;;;;;;;;5012478;28;20022;-71
2021/12/05 13:11:02;;;;;;;13.20;3.85;;;;;;;;;;5012083;28;20029;-76
2021/12/05 13:13:32;;;;;;;11.52;4.32;;;;;;;;;;5011708;28;20030;-77
2021/12/05 13:16:18;;;;;;;7.97;3.10;;;;;;;;;;5011876;28;20487;-76
2021/12/05 13:18:47;;;;;;;9.13;2.83;;;;;;;;;;5011911;28;20062;-77
2021/12/05 13:21:17;;;;;;;10.73;3.35;;;;;;;;;;5006936;28;20400;-76
2021/12/05 13:23:43;;;;;;;10.15;3.72;;;;;;;;;;4992091;28;20081;-77
2021/12/05 13:26:23;;;;;;;7.93;2.53;;;;;;;;;;4992301;28;20018;-77
2021/12/05 13:28:52;;;;;;;11.00;3.33;;;;;;;;;;4992367;28;20085;-77
2021/12/05 13:31:31;;;;;;;7.05;3.45;;;;;;;;;;5007867;28;20026;-77
2021/12/05 13:34:16;;;;;;;7.90;3.63;;;;;;;;;;4991666;28;20022;-76
2021/12/05 13:36:43;;;;;;;11.35;3.47;;;;;;;;;;4991923;28;20050;-77
2021/12/05 13:39:27;;;;;;;6.97;3.03;;;;;;;;;;4991865;28;20037;-76
2021/12/05 13:42:22;;;;;;;10.15;4.18;;;;;;;;;;4992039;28;20555;-77
2021/12/05 13:45:02;;;;;;;5.93;3.00;;;;;;;;;;4989000;28;20038;-77
2021/12/05 13:47:32;;;;;;;5.93;2.78;;;;;;;;;;4991749;28;20026;-76
2021/12/05 13:50:17;;;;;;;8.10;2.75;;;;;;;;;;5007210;28;20033;-75
2021/12/05 13:52:45;;;;;;;9.52;2.80;;;;;;;;;;4991878;28;20019;-76
2021/12/05 13:55:30;;;;;;;9.07;3.28;;;;;;;;;;5007635;28;20037;-75
2021/12/05 13:58:14;;;;;;;7.13;2.70;;;;;;;;;;4992232;28;20039;-76
2021/12/05 14:00:45;;;;;;;6.80;2.85;;;;;;;;;;5008539;28;20088;-76
2021/12/05 14:03:11;;;;;;;9.93;2.70;;;;;;;;;;4991700;28;20074;-75
2021/12/05 14:05:46;;;;;;;6.15;2.70;;;;;;;;;;4991587;28;20065;-76
2021/12/05 14:08:12;;;;;;;5.97;2.83;;;;;;;;;;4991988;28;20022;-76
2021/12/05 14:10:44;;;;;;;5.63;2.28;;;;;;;;;;4991046;28;20488;-75
2021/12/05 14:13:11;;;;;;;6.88;2.28;;;;;;;;;;4992557;28;20018;-75
2021/12/05 14:15:37;;;;;;;6.88;2.53;;;;;;;;;;4991371;28;20515;-75
2021/12/05 14:18:04;;;;;;;12.13;2.30;;;;;;;;;;4991634;28;20093;-74
2021/12/05 14:20:30;;;;;;;6.55;2.75;;;;;;;;;;5006635;28;20062;-74
2021/12/05 14:22:57;;;;;;;10.18;2.92;;;;;;;;;;5008599;28;20034;-73
2021/12/05 14:25:24;;;;;;;9.52;3.20;;;;;;;;;;4994582;28;20029;-75
2021/12/05 14:27:52;;;;;;;9.32;3.75;;;;;;;;;;4994672;28;20026;-75
2021/12/05 14:30:20;;;;;;;9.75;2.53;;;;;;;;;;4993715;28;20033;-75
2021/12/05 14:32:47;;;;;;;7.90;2.17;;;;;;;;;;4993533;28;20133;-72
2021/12/05 14:35:24;;;;;;;7.45;2.75;;;;;;;;;;4993591;28;20118;-75
2021/12/05 14:37:50;;;;;;;6.43;2.20;;;;;;;;;;4998559;28;20073;-75
2021/12/05 14:40:21;;;;;;;8.95;2.50;;;;;;;;;;4994118;28;20140;-75
2021/12/05 14:42:48;;;;;;;4.38;1.90;;;;;;;;;;5002565;28;20022;-75
2021/12/05 14:45:18;;;;;;;7.28;2.42;;;;;;;;;;5013175;28;20046;-77
2021/12/05 14:47:45;;;;;;;8.52;3.30;;;;;;;;;;5013576;28;20020;-74
2021/12/05 14:50:13;;;;;;;11.18;3.42;;;;;;;;;;4998888;28;20388;-75
2021/12/05 14:52:41;;;;;;;6.68;3.50;;;;;;;;;;5012043;28;20036;-72
2021/12/05 14:55:08;;;;;;;7.82;3.42;;;;;;;;;;5010887;28;20089;-77
2021/12/05 14:57:39;;;;;;;12.52;3.47;;;;;;;;;;5010654;28;20026;-74
2021/12/05 15:00:24;;;;;;;14.50;4.00;;;;;;;;;;5012648;28;20041;-73
2021/12/05 15:02:58;;;;;;;7.47;3.22;;;;;;;;;;5013137;28;20038;-74
2021/12/05 15:05:24;;;;;;;10.45;4.15;;;;;;;;;;5012516;28;20038;-72
2021/12/05 15:07:59;;;;;;;7.63;2.97;;;;;;;;;;5013880;28;20022;-74
2021/12/05 15:10:24;;;;;;;8.73;3.05;;;;;;;;;;5007266;28;20030;-74
2021/12/05 15:12:54;;;;;;;9.02;2.92;;;;;;;;;;4998126;28;20027;-78
2021/12/05 15:15:22;;;;;;;10.23;3.63;;;;;;;;;;4993662;28;20387;-75
2021/12/05 15:17:48;;;;;;;6.97;2.85;;;;;;;;;;4991184;28;20041;-75
2021/12/05 15:20:16;;;;;;;8.63;3.10;;;;;;;;;;4992176;28;20110;-76
2021/12/05 15:22:43;;;;;;;8.65;3.20;;;;;;;;;;4992234;28;20034;-73
2021/12/05 15:25:11;;;;;;;9.05;3.25;;;;;;;;;;4992223;28;20027;-76
2021/12/05 15:27:37;;;;;;;7.70;3.00;;;;;;;;;;4998412;28;20053;-76
2021/12/05 15:30:07;;;;;;;10.00;3.83;;;;;;;;;;5000459;28;20502;-74
2021/12/05 15:32:33;;;;;;;13.30;4.68;;;;;;;;;;5001013;28;20021;-77
2021/12/05 15:35:00;;;;;;;11.32;4.30;;;;;;;;;;4992625;28;20113;-75
2021/12/05 15:37:26;;;;;;;12.07;4.68;;;;;;;;;;4994000;28;20037;-77
2021/12/05 15:39:54;;;;;;;11.43;3.88;;;;;;;;;;4993673;28;20022;-75
2021/12/05 15:42:25;;;;;;;14.50;4.25;;;;;;;;;;4992966;28;20033;-74
2021/12/05 15:44:52;;;;;;;9.15;4.28;;;;;;;;;;4992769;28;20065;-74
2021/12/05 15:47:20;;;;;;;8.27;3.78;;;;;;;;;;4992986;28;20026;-75
2021/12/05 15:49:48;;;;;;;11.45;3.47;;;;;;;;;;4993249;28;20531;-75
2021/12/05 15:52:15;;;;;;;10.27;3.70;;;;;;;;;;4992848;28;20034;-73
2021/12/05 15:54:42;;;;;;;10.35;4.28;;;;;;;;;;4992991;28;20034;-75
2021/12/05 15:57:15;;;;;;;10.80;3.85;;;;;;;;;;4991347;28;20033;-75
2021/12/05 15:59:43;;;;;;;9.68;4.40;;;;;;;;;;4992545;28;20484;-75
2021/12/05 16:02:11;;;;;;;13.60;4.97;;;;;;;;;;4992468;28;20030;-76
2021/12/05 16:04:38;;;;;;;10.57;4.15;;;;;;;;;;4990538;28;20031;-74
2021/12/05 16:07:10;;;;;;;9.75;4.05;;;;;;;;;;4990816;28;20019;-75
2021/12/05 16:09:36;;;;;;;10.23;4.35;;;;;;;;;;4992293;28;20022;-73
2021/12/05 16:12:08;;;;;;;9.57;4.53;;;;;;;;;;4992495;28;20050;-73
2021/12/05 16:14:38;;;;;;;10.45;4.70;;;;;;;;;;4991778;28;20035;-73
2021/12/05 16:17:33;;;;;;;16.25;5.38;;;;;;;;;;4991071;28;20038;-73
2021/12/05 16:20:02;;;;;;;7.28;4.38;;;;;;;;;;4992302;28;20038;-73
2021/12/05 16:22:28;;;;;;;13.38;4.55;;;;;;;;;;4992470;28;20027;-74
2021/12/05 16:24:54;;;;;;;17.33;5.18;;;;;;;;;;4990321;28;20022;-73
2021/12/05 16:27:20;;;;;;;9.32;4.63;;;;;;;;;;4991875;28;20022;-74
2021/12/05 16:29:46;;;;;;;14.73;4.95;;;;;;;;;;4992077;28;20022;-73
2021/12/05 16:32:13;;;;;;;10.35;4.47;;;;;;;;;;4991961;28;20449;-75
2021/12/05 16:34:43;;;;;;;10.68;5.72;;;;;;;;;;4991682;28;20031;-73
2021/12/05 16:37:12;;;;;;;8.35;4.90;;;;;;;;;;4992564;28;20038;-77
2021/12/05 16:39:40;;;;;;;15.38;7.00;;;;;;;;;;4991277;28;20467;-73
2021/12/05 16:42:18;;;;;;;13.65;5.75;;;;;;;;;;4991592;28;20427;-72
2021/12/05 16:44:52;;;;;;;12.52;5.95;;;;;;;;;;4991026;28;20046;-73
2021/12/05 16:47:19;;;;;;;20.30;8.95;;;;;;;;;;4990686;28;20026;-75
2021/12/05 16:49:47;;;;;;;17.20;7.93;;;;;;;;;;4992021;28;20061;-72
2021/12/05 16:52:24;;;;;;;18.73;8.38;;;;;;;;;;4991699;28;20085;-76
2021/12/05 16:54:54;;;;;;;18.20;9.35;;;;;;;;;;4991598;28;20057;-76
2021/12/05 16:57:29;;;;;;;20.80;10.43;;;;;;;;;;4992027;28;20027;-77
2021/12/05 16:59:56;;;;;;;18.63;10.68;;;;;;;;;;4991726;28;20080;-73
2021/12/05 17:02:32;;;;;;;20.33;11.48;;;;;;;;;;4991477;28;20518;-75
2021/12/05 17:05:03;;;;;;;19.15;11.57;;;;;;;;;;4991365;28;20065;-75
2021/12/05 17:07:54;;;;;;;26.35;13.48;;;;;;;;;;4991579;28;20026;-74
2021/12/05 17:10:20;;;;;;;;;;;;;;;;;;4992322;28;20023;-75
2021/12/05 17:12:46;;;;;;;23.15;13.50;;;;;;;;;;4991285;28;19964;-74
2021/12/05 17:15:15;;;;;;;22.38;11.82;;;;;;;;;;4990312;28;20092;-75
2021/12/05 17:17:43;;;;;;;19.92;10.45;;;;;;;;;;5002169;28;20030;-73
2021/12/05 17:20:26;;;;;;;23.13;11.73;;;;;;;;;;5000372;28;20084;-76
2021/12/05 17:22:59;;;;;;;16.85;9.90;;;;;;;;;;4991842;28;20038;-76
2021/12/05 17:25:26;;;;;;;20.73;10.15;;;;;;;;;;4994334;28;20032;-76
2021/12/05 17:27:52;;;;;;;17.75;8.35;;;;;;;;;;5012830;28;20109;-76
2021/12/05 17:30:18;;;;;;;14.40;8.18;;;;;;;;;;5012604;28;20059;-75
2021/12/05 17:32:44;;;;;;;15.82;8.88;;;;;;;;;;5012367;28;20026;-74
2021/12/05 17:35:10;;;;;;;18.00;8.93;;;;;;;;;;5012033;28;20030;-73
2021/12/05 17:37:36;;;;;;;15.73;7.38;;;;;;;;;;5011544;28;20034;-75
2021/12/05 17:40:06;;;;;;;13.30;7.65;;;;;;;;;;5011502;28;20404;-75
2021/12/05 17:42:32;;;;;;;16.98;6.95;;;;;;;;;;5011345;28;20579;-76
2021/12/05 17:44:59;;;;;;;19.27;7.72;;;;;;;;;;5011448;28;20041;-76
2021/12/05 17:47:25;;;;;;;21.33;8.65;;;;;;;;;;5011623;28;20198;-75
2021/12/05 17:49:53;;;;;;;18.23;8.80;;;;;;;;;;5011634;28;20511;-75
2021/12/05 17:52:21;;;;;;;17.50;7.35;;;;;;;;;;5011710;28;20026;-76
2021/12/05 17:57:21;;;;;;;18.60;7.00;;;;;;;;;;5013067;28;20058;-75
2021/12/05 18:05:13;;;;;;;16.35;10.75;;;;;;;;;;5014384;28;20415;-75
2021/12/05 18:07:39;;;;;;;18.83;11.05;;;;;;;;;;5014083;28;20041;-77
2021/12/05 18:10:05;;;;;;;18.38;9.77;;;;;;;;;;5014223;28;20030;-75
2021/12/05 18:12:36;;;;;;;18.63;10.80;;;;;;;;;;5014138;28;20026;-77
2021/12/05 18:15:06;;;;;;;20.02;13.30;;;;;;;;;;5012765;28;20022;-76
2021/12/05 18:17:32;;;;;;;18.98;10.18;;;;;;;;;;5014042;28;20034;-76
2021/12/05 18:19:58;;;;;;;22.80;12.27;;;;;;;;;;5014114;28;20076;-76
2021/12/05 18:22:24;;;;;;;22.02;10.23;;;;;;;;;;5014066;28;20455;-75
2021/12/05 18:24:50;;;;;;;18.48;10.20;;;;;;;;;;5013630;28;20044;-77
2021/12/05 18:27:16;;;;;;;16.48;9.50;;;;;;;;;;5012675;28;20026;-75
2021/12/05 18:29:43;;;;;;;17.00;9.40;;;;;;;;;;5013324;28;20029;-77
2021/12/05 18:32:11;;;;;;;16.42;9.27;;;;;;;;;;5013990;28;20446;-76
2021/12/05 18:34:37;;;;;;;17.15;9.65;;;;;;;;;;5013599;28;20038;-77
2021/12/05 18:37:05;;;;;;;22.83;11.13;;;;;;;;;;5013509;28;20034;-76
2021/12/05 18:39:32;;;;;;;22.25;11.25;;;;;;;;;;5013571;28;20101;-75
2021/12/05 18:42:04;;;;;;;23.77;12.40;;;;;;;;;;5002934;28;20031;-75
2021/12/05 18:44:32;;;;;;;;;;;;;;;;;;5000721;28;20480;-73
2021/12/05 18:46:59;;;;;;;23.83;13.15;;;;;;;;;;5003285;28;20322;-75
2021/12/05 18:49:26;;;;;;;25.00;13.13;;;;;;;;;;4993851;28;20027;-75
2021/12/05 18:51:53;;;;;;;24.67;12.82;;;;;;;;;;5011093;28;20021;-74
2021/12/05 18:54:19;;;;;;;17.15;10.43;;;;;;;;;;5013105;28;20036;-76
2021/12/05 18:56:46;;;;;;;22.65;12.55;;;;;;;;;;5013209;28;20084;-74
2021/12/05 18:59:12;;;;;;;17.75;11.18;;;;;;;;;;5013183;28;20034;-74
2021/12/05 19:04:36;;;;;;;22.88;10.52;;;;;;;;;;5030266;22;20041;-68
2021/12/05 19:07:12;;;;;;;19.00;10.40;;;;;;;;;;5011884;28;20496;-69
2021/12/05 19:12:06;;;;;;;20.40;10.13;;;;;;;;;;5013590;28;20119;-69
2021/12/05 19:14:38;;;;;;;19.70;10.25;;;;;;;;;;5012269;28;20034;-68
2021/12/05 19:17:07;;;;;;;20.23;10.88;;;;;;;;;;5011307;28;20116;-69
2021/12/05 19:19:33;;;;;;;27.23;15.02;;;;;;;;;;5012193;28;20140;-69
2021/12/05 19:22:00;;;;;;;21.73;11.82;;;;;;;;;;5011276;28;20042;-69
2021/12/05 19:24:28;;;;;;;17.00;10.02;;;;;;;;;;5009080;28;20077;-69
2021/12/05 19:26:57;;;;;;;20.65;11.32;;;;;;;;;;4988827;28;20529;-69
2021/12/05 19:29:23;;;;;;;22.88;11.75;;;;;;;;;;4989957;28;20046;-68
2021/12/05 19:31:52;;;;;;;20.30;11.75;;;;;;;;;;5012614;28;20057;-72
2021/12/05 19:34:18;;;;;;;25.90;12.02;;;;;;;;;;5012365;28;20037;-71
2021/12/05 19:36:45;;;;;;;19.08;11.23;;;;;;;;;;5012706;28;20060;-71
2021/12/05 19:39:12;;;;;;;24.52;11.07;;;;;;;;;;5012694;28;20025;-71
2021/12/05 19:41:39;;;;;;;31.92;15.65;;;;;;;;;;5012559;28;20025;-71
2021/12/05 19:44:05;;;;;;;22.50;12.55;;;;;;;;;;5010484;28;20030;-69
2021/12/05 19:46:32;;;;;;;23.20;11.73;;;;;;;;;;5012754;28;20080;-70
2021/12/05 19:48:58;;;;;;;23.50;13.55;;;;;;;;;;5012811;28;20041;-70
2021/12/05 19:51:25;;;;;;;20.38;11.60;;;;;;;;;;5012246;28;20021;-70
2021/12/05 19:53:51;;;;;;;40.80;20.58;;;;;;;;;;5010726;28;20558;-70
2021/12/05 19:56:18;;;;;;;42.25;23.55;;;;;;;;;;5012169;28;20014;-71
2021/12/05 19:58:45;;;;;;;44.17;23.92;;;;;;;;;;5012119;28;20026;-71
2021/12/05 20:01:11;;;;;;;52.55;27.15;;;;;;;;;;5012222;28;20494;-71
2021/12/05 20:03:39;;;;;;;30.35;17.40;;;;;;;;;;5012334;28;20100;-71
2021/12/05 20:06:05;;;;;;;30.02;15.75;;;;;;;;;;5010493;28;20431;-71
2021/12/05 20:08:31;;;;;;;20.67;13.32;;;;;;;;;;4994528;28;20099;-70
2021/12/05 20:10:59;;;;;;;25.10;13.48;;;;;;;;;;5011823;28;20036;-70
2021/12/05 20:13:26;;;;;;;26.85;14.98;;;;;;;;;;5011559;28;20403;-71